Time;durP1;ratioP1;P1;durP2;ratioP2;P2;SDS_P1;SDS_P2;PMS_P1;PMS_P2;Temp;Humidity;BMP_temperature;BMP_pressure;BME280_temperature;BME280_humidity;BME280_pressure;Samples;Min_cycle;Max_cycle;Signal;HPM_P1;HPM_P2
2023/04/20 00:03:59;;;;;;;10.90;6.13;;;5.80;99.90;;;;;;20741932;28;20485;-79
2023/04/20 00:13:59;;;;;;;11.53;6.17;;;5.80;99.90;;;;;;20744446;28;20339;-78
2023/04/20 00:24:00;;;;;;;11.40;6.47;;;5.80;99.90;;;;;;20750238;28;20633;-79
2023/04/20 00:34:01;;;;;;;;;;;5.80;99.90;;;;;;20759387;28;20108;-79
2023/04/20 00:44:02;;;;;;;11.27;6.37;;;5.70;99.90;;;;;;20764824;28;19928;-80
2023/04/20 00:54:03;;;;;;;;;;;5.60;99.90;;;;;;20772862;28;20114;-79
2023/04/20 01:04:06;;;;;;;15.25;8.13;;;5.60;99.90;;;;;;20768444;28;19920;-79
2023/04/20 01:14:07;;;;;;;20.23;8.95;;;5.60;99.90;;;;;;20772233;28;20108;-80
2023/04/20 01:24:07;;;;;;;;;;;5.60;99.90;;;;;;20833029;28;20124;-79
2023/04/20 01:34:08;;;;;;;12.77;7.10;;;5.60;99.90;;;;;;20850209;28;19963;-79
2023/04/20 01:44:09;;;;;;;;;;;5.60;99.90;;;;;;20849370;28;20496;-78
2023/04/20 01:54:11;;;;;;;14.98;8.52;;;5.50;99.90;;;;;;20787848;28;19993;-79
2023/04/20 02:04:12;;;;;;;;;;;5.50;99.90;;;;;;20756891;28;20537;-79
2023/04/20 02:14:14;;;;;;;11.93;7.00;;;5.50;99.90;;;;;;20772311;28;20022;-80
2023/04/20 02:24:16;;;;;;;12.75;7.10;;;5.60;99.90;;;;;;20772200;28;20030;-79
2023/04/20 02:34:17;;;;;;;11.52;7.38;;;5.60;99.90;;;;;;20745310;28;20029;-80
2023/04/20 02:44:18;;;;;;;12.80;7.70;;;5.60;99.90;;;;;;20757490;28;20029;-81
2023/04/20 02:54:19;;;;;;;11.77;6.53;;;5.60;99.90;;;;;;20771199;28;20214;-79
2023/04/20 03:04:21;;;;;;;11.68;7.10;;;5.70;99.90;;;;;;20747243;28;20037;-78
2023/04/20 03:14:42;;;;;;;11.93;5.93;;;5.70;99.90;;;;;;20738211;28;20561;-77
2023/04/20 03:24:43;;;;;;;10.10;5.38;;;5.80;99.90;;;;;;20707593;28;20030;-78
2023/04/20 03:34:52;;;;;;;10.35;5.88;;;5.70;99.90;;;;;;20743079;28;20124;-78
2023/04/20 03:44:54;;;;;;;12.10;6.35;;;5.60;99.90;;;;;;20726465;28;20037;-76
2023/04/20 03:54:55;;;;;;;11.00;5.93;;;5.50;99.90;;;;;;20744653;28;20034;-77
2023/04/20 04:04:56;;;;;;;;;;;5.50;99.90;;;;;;20746198;28;20512;-81
2023/04/20 04:14:57;;;;;;;12.73;6.82;;;5.40;99.90;;;;;;20770741;28;19920;-80
2023/04/20 04:25:01;;;;;;;10.48;6.72;;;5.30;99.90;;;;;;20759574;28;20076;-78
2023/04/20 04:35:02;;;;;;;11.80;7.15;;;5.30;99.90;;;;;;20776954;28;20061;-80
2023/04/20 04:45:04;;;;;;;18.73;7.45;;;5.20;99.90;;;;;;20777142;28;20512;-80
2023/04/20 04:55:08;;;;;;;17.80;7.97;;;5.30;99.90;;;;;;20809523;28;20030;-81
2023/04/20 05:05:09;;;;;;;13.60;7.85;;;5.30;99.90;;;;;;20776720;28;20030;-81
2023/04/20 05:15:10;;;;;;;;;;;5.20;99.90;;;;;;20780595;28;20067;-81
2023/04/20 05:25:11;;;;;;;18.63;9.05;;;5.20;99.90;;;;;;20764224;28;19963;-79
2023/04/20 05:35:12;;;;;;;16.77;8.15;;;5.30;99.90;;;;;;20761657;28;20035;-78
2023/04/20 05:45:13;;;;;;;;;;;5.30;99.90;;;;;;20750309;28;20507;-78
2023/04/20 05:55:13;;;;;;;13.90;7.37;;;5.20;99.90;;;;;;20752279;28;20453;-78
2023/04/20 06:05:14;;;;;;;;;;;5.40;99.90;;;;;;20752279;28;20045;-78
2023/04/20 06:15:15;;;;;;;8.38;4.30;;;5.40;99.90;;;;;;20744951;28;19971;-78
2023/04/20 06:25:16;;;;;;;;;;;5.40;99.90;;;;;;20754172;28;20026;-78
2023/04/20 06:35:17;;;;;;;5.40;3.78;;;5.20;99.90;;;;;;20751084;28;19910;-78
2023/04/20 06:45:17;;;;;;;;;;;5.20;99.90;;;;;;20755339;28;20030;-78
2023/04/20 06:55:18;;;;;;;6.47;3.53;;;5.10;99.90;;;;;;20753627;28;19915;-78
2023/04/20 07:05:19;;;;;;;;;;;5.10;99.90;;;;;;20746249;28;20475;-78
2023/04/20 07:15:20;;;;;;;9.10;3.97;;;5.20;99.90;;;;;;20740494;28;20372;-78
2023/04/20 07:25:20;;;;;;;;;;;5.20;99.90;;;;;;20738838;28;20425;-78
2023/04/20 07:35:21;;;;;;;8.23;4.10;;;5.10;99.90;;;;;;20732890;28;19909;-79
2023/04/20 07:45:23;;;;;;;;;;;5.20;99.90;;;;;;20734701;28;20356;-79
2023/04/20 07:55:24;;;;;;;4.75;2.50;;;5.10;99.90;;;;;;20757076;28;19922;-79
2023/04/20 08:05:26;;;;;;;8.48;3.55;;;5.10;99.90;;;;;;20731610;28;20034;-78
2023/04/20 08:15:27;;;;;;;3.95;2.88;;;5.20;99.90;;;;;;20745815;28;20030;-77
2023/04/20 08:25:27;;;;;;;2.42;1.80;;;5.00;99.90;;;;;;20742758;28;20033;-77
2023/04/20 08:35:28;;;;;;;2.78;2.10;;;4.60;99.90;;;;;;20756828;28;20073;-79
2023/04/20 08:45:30;;;;;;;2.25;1.88;;;4.60;99.90;;;;;;20766082;28;20037;-79
2023/04/20 08:55:32;;;;;;;15.73;8.25;;;4.70;99.90;;;;;;20762414;28;20038;-80
2023/04/20 09:05:33;;;;;;;3.47;2.38;;;5.00;99.90;;;;;;20767905;28;20085;-79
2023/04/20 09:15:33;;;;;;;;;;;4.80;99.90;;;;;;20772954;28;20025;-78
2023/04/20 09:25:35;;;;;;;3.15;2.45;;;4.80;99.90;;;;;;20775408;28;19921;-80
2023/04/20 09:35:38;;;;;;;4.63;3.42;;;4.70;99.90;;;;;;20769626;28;20053;-80
2023/04/20 09:45:39;;;;;;;5.55;3.55;;;4.60;99.90;;;;;;20791867;28;20034;-80
2023/04/20 09:55:47;;;;;;;16.73;10.38;;;4.80;99.90;;;;;;20769162;28;20026;-80
2023/04/20 10:05:48;;;;;;;3.75;1.90;;;5.40;99.90;;;;;;20769741;28;20129;-80
2023/04/20 10:15:48;;;;;;;;;;;5.60;99.90;;;;;;20767174;28;20489;-81
2023/04/20 10:26:00;;;;;;;3.28;1.70;;;5.80;99.90;;;;;;20775265;28;19920;-79
2023/04/20 10:36:01;;;;;;;3.13;2.38;;;5.70;99.90;;;;;;20777912;28;20039;-81
2023/04/20 10:46:19;;;;;;;4.97;3.17;;;5.80;99.90;;;;;;20768499;28;20091;-81
2023/04/20 10:56:20;;;;;;;6.38;2.35;;;5.80;99.90;;;;;;20776468;28;20080;-81
2023/04/20 11:06:21;;;;;;;3.08;2.08;;;5.90;99.90;;;;;;20768733;28;20037;-81
2023/04/20 11:16:22;;;;;;;2.58;1.75;;;6.40;99.90;;;;;;20766268;28;20025;-79
2023/04/20 11:26:36;;;;;;;5.22;1.95;;;6.30;99.90;;;;;;20765384;28;20064;-81
2023/04/20 11:36:38;;;;;;;2.42;1.60;;;6.40;99.90;;;;;;20760953;28;20034;-81
2023/04/20 11:46:39;;;;;;;2.65;1.70;;;6.60;99.90;;;;;;20759711;28;20037;-81
2023/04/20 11:56:41;;;;;;;2.35;1.92;;;6.90;99.90;;;;;;20759421;28;20092;-80
2023/04/20 12:06:42;;;;;;;2.45;1.70;;;6.70;99.90;;;;;;20756046;28;20087;-80
2023/04/20 12:16:42;;;;;;;;;;;7.40;99.90;;;;;;20761529;28;20030;-80
2023/04/20 12:26:43;;;;;;;1.67;1.33;;;7.80;99.90;;;;;;20778025;28;19917;-81
2023/04/20 12:36:44;;;;;;;3.27;1.43;;;8.00;99.90;;;;;;20769641;28;20061;-80
2023/04/20 12:46:45;;;;;;;1.23;0.93;;;7.60;99.90;;;;;;20774950;28;20092;-81
2023/04/20 12:56:45;;;;;;;19.17;6.43;;;7.50;99.90;;;;;;20770368;28;20096;-79
2023/04/20 13:06:46;;;;;;;31.03;18.33;;;7.50;99.90;;;;;;20768266;28;20038;-81
2023/04/20 13:16:47;;;;;;;1.80;1.70;;;7.70;99.90;;;;;;20790463;28;20042;-80
2023/04/20 13:26:52;;;;;;;4.57;1.27;;;7.50;99.90;;;;;;20770863;28;20034;-81
2023/04/20 13:36:53;;;;;;;3.33;1.58;;;6.90;99.90;;;;;;20770783;28;20025;-81
2023/04/20 13:46:54;;;;;;;11.43;3.90;;;7.00;99.90;;;;;;20770496;28;20026;-81
2023/04/20 13:56:54;;;;;;;4.90;2.57;;;6.80;99.90;;;;;;20770512;28;20040;-81
2023/04/20 14:06:55;;;;;;;3.53;1.80;;;7.00;99.90;;;;;;20770510;28;20065;-81
2023/04/20 14:16:56;;;;;;;5.87;2.30;;;7.00;99.90;;;;;;20769291;28;20312;-81
2023/04/20 14:26:58;;;;;;;6.00;2.53;;;6.90;99.90;;;;;;20780806;28;20083;-78
2023/04/20 14:36:59;;;;;;;3.38;1.90;;;6.90;99.90;;;;;;20770669;28;20065;-80
2023/04/20 14:47:00;;;;;;;5.27;2.23;;;7.20;99.90;;;;;;20765858;28;20404;-79
2023/04/20 14:57:01;;;;;;;;;;;7.10;99.90;;;;;;20779699;28;20030;-80
2023/04/20 15:07:03;;;;;;;2.35;1.85;;;7.40;99.90;;;;;;20762091;28;19975;-81
2023/04/20 15:17:03;;;;;;;2.53;1.75;;;7.40;99.90;;;;;;20761339;28;20045;-79
2023/04/20 15:27:05;;;;;;;2.37;1.70;;;7.40;99.90;;;;;;20760350;28;20026;-81
2023/04/20 15:37:06;;;;;;;2.97;1.35;;;7.50;99.90;;;;;;20758509;28;20038;-81
2023/04/20 15:47:07;;;;;;;2.77;1.63;;;7.40;99.90;;;;;;20772173;28;20022;-81
2023/04/20 15:57:08;;;;;;;3.37;1.87;;;7.40;99.90;;;;;;20759604;28;20034;-81
2023/04/20 16:07:09;;;;;;;2.22;1.52;;;7.50;99.90;;;;;;20760454;28;20038;-79
2023/04/20 16:17:10;;;;;;;3.28;2.20;;;7.50;99.90;;;;;;20767780;28;20033;-80
2023/04/20 16:27:11;;;;;;;3.53;2.10;;;7.80;99.90;;;;;;20777491;28;20057;-82
2023/04/20 16:37:12;;;;;;;3.83;1.87;;;7.80;99.90;;;;;;20787750;28;20113;-79
2023/04/20 16:47:12;;;;;;;3.13;2.10;;;7.70;99.90;;;;;;20772333;28;20065;-79
2023/04/20 16:57:14;;;;;;;4.97;3.10;;;7.50;99.90;;;;;;20773171;28;20041;-79
2023/04/20 17:07:16;;;;;;;4.45;2.40;;;7.40;99.90;;;;;;20771422;28;20104;-80
2023/04/20 17:17:16;;;;;;;5.10;3.15;;;7.20;99.90;;;;;;20767592;28;20060;-82
2023/04/20 17:27:18;;;;;;;4.40;2.67;;;7.10;99.90;;;;;;20750863;28;20030;-81
2023/04/20 17:37:20;;;;;;;2.72;2.13;;;7.10;99.90;;;;;;20779403;28;20116;-81
2023/04/20 17:47:20;;;;;;;3.90;2.20;;;7.10;99.90;;;;;;20771346;28;20061;-81
2023/04/20 17:57:21;;;;;;;6.27;4.10;;;6.90;99.90;;;;;;20775044;28;20041;-81
2023/04/20 18:07:22;;;;;;;6.45;4.45;;;6.90;99.90;;;;;;20779140;28;20830;-79
2023/04/20 18:17:23;;;;;;;5.57;3.57;;;6.80;99.90;;;;;;20785137;28;20560;-82
2023/04/20 18:27:24;;;;;;;6.20;3.80;;;6.70;99.90;;;;;;20778686;28;20117;-81
2023/04/20 18:37:25;;;;;;;7.20;3.25;;;6.50;99.90;;;;;;20756077;28;20296;-80
2023/04/20 18:47:26;;;;;;;5.60;3.50;;;6.30;99.90;;;;;;20759612;28;20544;-81
2023/04/20 18:57:27;;;;;;;5.38;3.63;;;6.10;99.90;;;;;;20754644;28;20033;-82
2023/04/20 19:07:28;;;;;;;7.35;4.70;;;5.80;99.90;;;;;;20755186;28;20033;-82
2023/04/20 19:28:58;;;;;;;7.93;5.15;;;5.40;99.90;;;;;;20759605;28;20249;-81
2023/04/20 19:38:59;;;;;;;10.30;5.25;;;5.40;99.90;;;;;;20751958;28;20497;-80
2023/04/20 19:49:00;;;;;;;;;;;5.10;99.90;;;;;;20769902;28;20034;-78
2023/04/20 19:59:00;;;;;;;14.80;7.72;;;4.70;99.90;;;;;;20761700;28;20003;-81
2023/04/20 20:09:01;;;;;;;;;;;4.60;99.90;;;;;;20761720;28;20432;-81
2023/04/20 20:19:02;;;;;;;16.67;8.82;;;4.70;99.90;;;;;;20765933;28;19917;-79
2023/04/20 20:29:03;;;;;;;15.70;9.63;;;4.60;99.90;;;;;;20760252;28;20037;-80
2023/04/20 20:39:05;;;;;;;21.75;10.60;;;4.40;99.90;;;;;;20766681;28;20052;-80
2023/04/20 20:49:06;;;;;;;21.55;10.50;;;4.50;99.90;;;;;;20764456;28;20030;-80
2023/04/20 20:59:07;;;;;;;21.00;10.40;;;4.50;99.90;;;;;;20771036;28;20104;-80
2023/04/20 21:09:08;;;;;;;25.23;11.50;;;4.20;99.90;;;;;;20776813;28;20560;-80
2023/04/20 21:19:10;;;;;;;;;;;4.20;99.90;;;;;;20779253;28;20026;-79
2023/04/20 21:29:10;;;;;;;23.37;11.67;;;4.30;99.90;;;;;;20775107;28;19915;-80
2023/04/20 21:39:11;;;;;;;;;;;4.40;99.90;;;;;;20814194;28;20037;-79
2023/04/20 21:49:12;;;;;;;17.23;8.67;;;4.20;99.90;;;;;;20824107;28;19920;-80
2023/04/20 21:59:13;;;;;;;;;;;4.10;99.90;;;;;;20788218;28;20771;-80
2023/04/20 22:09:15;;;;;;;25.90;12.68;;;4.00;99.90;;;;;;20776125;28;19971;-81
2023/04/20 22:19:16;;;;;;;29.13;13.55;;;4.10;99.90;;;;;;20779630;28;20083;-80
2023/04/20 22:29:17;;;;;;;26.02;12.70;;;4.20;99.90;;;;;;20781565;28;20030;-79
2023/04/20 22:39:18;;;;;;;30.42;14.82;;;4.20;99.90;;;;;;20777177;28;20033;-80
2023/04/20 22:49:18;;;;;;;;;;;4.40;99.90;;;;;;20776135;28;20547;-80
2023/04/20 22:59:19;;;;;;;94.13;17.20;;;4.60;99.90;;;;;;20770568;28;19963;-80
2023/04/20 23:09:20;;;;;;;274.27;22.98;;;4.60;99.90;;;;;;20767692;28;20396;-81
2023/04/20 23:19:21;;;;;;;256.80;21.95;;;4.50;99.90;;;;;;20773044;28;20052;-79
2023/04/20 23:29:21;;;;;;;129.98;15.65;;;4.50;99.90;;;;;;20776234;28;20528;-82
2023/04/20 23:39:22;;;;;;;;;;;4.30;99.90;;;;;;20768372;28;20081;-80
2023/04/20 23:49:23;;;;;;;351.00;24.20;;;4.20;99.90;;;;;;20788131;28;19928;-81
2023/04/20 23:59:23;;;;;;;;;;;4.10;99.90;;;;;;20789353;28;20384;-80
